PASIPAJN

Guest
Details From PASI - Sitka Rocky Gutierrez
To PAJN - Juneau Intl
Flight Number -
Tags Generated
Created
Modified
Stats Distance 82 nm / 152 km
Max Altitude 0 ft / 0 m
Waypoints 2
Social Downloads 6
Likes 0
Share VATSIM

Download

Looking for another format? Having issues loading an existing format? Contact us
Advertisement - Login to hide

Notes

Generated

Route

PASI PAJN

ID Type Via Altitude Latitude Longitude Leg Dist Tot Dist Heading (true) Name
O PASI APT - 0 ft / 0 m 57.05347˚ -135.37303˚ - 0 nm - -
O PAJN APT - 0 ft / 0 m 58.35793˚ -134.59756˚ 82 nm 82 nm 17° / 18° -

Altitude Profile

Advertisement - Login to hide

PASI

Details ICAO PASI (SIT)
Name SITKA ROCKY GUTIERREZ
Region USA (Alaska)
Timezone America/Juneau (UTC-9.0)
Stats Elevation 21 ft / 6 m (AMSL)
Location 57.047128° -135.361597°
Runways 1
Magnetic Variation 18.748° E

METAR

PASI 181253Z 11008KT 6SM -RA BR FEW012 OVC030 02/02 A2981

Decode

TAF

TAF PASI 181138Z 1812/1912 10006KT P6SM VCSH SCT025 OVC040 TEMPO 1812/1814 4SM -SHRAPL BKN015 OVC025 FM181400 09005KT P6SM VCSH SCT015 OVC050 FM190000 07004KT P6SM BKN100

Decode

Departure Runways

ID Width Length Bearing (true) Bearing (mag) Surface Threshold Offset Overrun Length
11 150 ft / 46 m 6,485 ft / 1,977 m 135.57° 116.82° Asphalt 0 ft / 0 m 0 ft / 0 m
29 150 ft / 46 m 6,485 ft / 1,977 m 315.59° 296.84° Asphalt 0 ft / 0 m 0 ft / 0 m

PAJN

Details ICAO PAJN (JNU)
Name Juneau Intl
Region USA (Alaska)
Timezone America/Juneau (UTC-9.0)
Stats Elevation 21 ft / 6 m (AMSL)
Location 58.354964° -134.576278°
Runways 1
Magnetic Variation 19.145° E

METAR

PAJN 181253Z 10003KT 7SM BCFG FEW000 SCT010 BKN050 M02/M02 A2985

Decode

TAF

TAF PAJN 181303Z 1813/1912 08003KT P6SM VCFG FEW001 SCT010 BKN050 TEMPO 1813/1816 00000KT 1/2SM FG BKN001 BKN010 FM181900 VRB05KT P6SM SCT015 BKN060 FM190000 29005KT P6SM SCT060 FM190600 00000KT P6SM FEW005

Decode

Destination Runways

ID Width Length Bearing (true) Bearing (mag) Surface Threshold Offset Overrun Length
08 150 ft / 46 m 8,430 ft / 2,570 m 104.87° 85.72° Asphalt 0 ft / 0 m 450 ft / 137 m
26 150 ft / 46 m 8,430 ft / 2,570 m 284.90° 265.75° Asphalt 0 ft / 0 m 225 ft / 69 m

Approach Navaids

Runway Type Ident Frequency Range Bearing (true) Bearing (mag) Slope Elevation
08 Localiser IJDL 109.90 MHz 18 nm / 33 km 84.92° 65.78° - 21 ft / 6 m (AMSL)
08 DME IJDL 109.90 MHz 18 nm / 33 km - - - 175 ft / 53 m (AMSL)

Popular Alternatives